TimeCDT,TemperatureF,Dew PointF,Humidity,Sea Level PressureIn,VisibilityMPH,Wind Direction,Wind SpeedMPH,Gust SpeedMPH,PrecipitationIn,Events,Conditions,WindDirDegrees,DateUTC
12:50 AM,53.6,53.6,100,29.93,1.0,North,3.5,-,N/A,,Mist,10,2012-10-23 05:50:00
1:04 AM,53.6,51.8,94,29.93,0.5,NNE,3.5,-,N/A,Fog,Fog,20,2012-10-23 06:04:00
1:53 AM,52.0,52.0,100,29.95,0.5,Calm,Calm,-,N/A,Fog,Fog,0,2012-10-23 06:53:00
2:53 AM,53.1,52.0,96,29.92,0.2,North,8.1,-,N/A,Fog,Fog,360,2012-10-23 07:53:00
3:53 AM,52.0,52.0,100,29.94,0.5,North,6.9,-,N/A,Fog,Fog,10,2012-10-23 08:53:00
4:53 AM,52.0,52.0,100,29.94,0.8,North,5.8,-,N/A,,Mist,10,2012-10-23 09:53:00
5:53 AM,52.0,51.1,97,29.94,1.0,NNE,4.6,-,N/A,,Mist,20,2012-10-23 10:53:00
6:10 AM,51.8,51.8,100,29.94,0.8,North,4.6,-,N/A,,Mist,360,2012-10-23 11:10:00
6:39 AM,51.8,51.8,100,29.93,1.0,North,4.6,-,N/A,,Mist,360,2012-10-23 11:39:00
6:53 AM,51.1,51.1,100,29.94,1.0,NNE,6.9,-,N/A,,Mist,20,2012-10-23 11:53:00
7:53 AM,51.1,51.1,100,29.94,0.5,NNE,5.8,-,N/A,Fog,Fog,30,2012-10-23 12:53:00
8:53 AM,52.0,52.0,100,29.96,0.2,Calm,Calm,-,N/A,Fog,Fog,0,2012-10-23 13:53:00
10:53 AM,55.9,55.0,97,29.95,0.5,East,3.5,-,0.00,Fog,Fog,100,2012-10-23 15:53:00
12:13 PM,55.4,55.4,100,29.94,0.2,SSE,3.5,-,N/A,Fog-Thunderstorm,Fog,160,2012-10-23 17:13:00
12:53 PM,55.9,55.9,100,29.91,0.5,SE,6.9,-,0.03,Fog-Rain-Thunderstorm,Light Rain,140,2012-10-23 17:53:00
1:03 PM,55.4,55.4,100,29.91,1.8,South,3.5,-,0.01,Rain-Thunderstorm,Light Rain,180,2012-10-23 18:03:00
1:10 PM,55.4,55.4,100,29.91,2.0,SSE,9.2,-,0.04,Rain-Thunderstorm,Rain,150,2012-10-23 18:10:00
1:24 PM,55.4,55.4,100,29.91,6.0,South,5.8,-,0.05,Rain-Thunderstorm,Light Rain,170,2012-10-23 18:24:00
1:40 PM,57.2,57.2,100,29.91,7.0,Calm,Calm,-,0.05,,Overcast,0,2012-10-23 18:40:00
1:53 PM,57.9,57.0,97,29.91,5.0,South,3.5,-,0.05,,Overcast,180,2012-10-23 18:53:00
2:10 PM,59.0,57.2,94,29.90,5.0,SSW,4.6,-,N/A,,Overcast,210,2012-10-23 19:10:00
2:22 PM,59.0,59.0,100,29.90,6.0,SW,3.5,-,N/A,,Overcast,220,2012-10-23 19:22:00
2:53 PM,60.1,60.1,100,29.90,5.0,Calm,Calm,-,0.00,,Overcast,0,2012-10-23 19:53:00
3:34 PM,55.4,55.4,100,29.90,1.8,NE,8.1,-,N/A,,Overcast,50,2012-10-23 20:34:00
3:43 PM,55.4,53.6,94,29.89,0.8,NE,6.9,-,N/A,,Mist,40,2012-10-23 20:43:00
3:53 PM,55.0,54.0,96,29.90,0.5,ENE,5.8,-,N/A,Fog,Fog,60,2012-10-23 20:53:00
4:53 PM,55.0,55.0,100,29.91,0.2,ESE,6.9,-,N/A,Fog,Fog,110,2012-10-23 21:53:00
5:53 PM,55.9,55.9,100,29.91,0.5,ESE,3.5,-,N/A,Fog,Fog,110,2012-10-23 22:53:00
6:53 PM,55.9,55.9,100,29.92,0.5,SE,4.6,-,N/A,Fog,Fog,140,2012-10-23 23:53:00
7:53 PM,57.0,57.0,100,29.92,0.2,Calm,Calm,-,N/A,Fog,Fog,0,2012-10-24 00:53:00
8:53 PM,57.9,57.9,100,29.93,0.2,South,5.8,-,N/A,Fog,Fog,180,2012-10-24 01:53:00
9:53 PM,57.0,57.0,100,29.94,0.8,South,4.6,-,N/A,,Mist,170,2012-10-24 02:53:00
9:59 PM,57.2,57.2,100,29.93,1.2,SSE,4.6,-,N/A,,Overcast,160,2012-10-24 02:59:00
10:21 PM,57.2,57.2,100,29.93,0.5,SSE,4.6,-,N/A,Fog,Fog,150,2012-10-24 03:21:00
10:53 PM,55.9,55.0,97,29.94,0.2,SSE,4.6,-,N/A,Fog,Fog,160,2012-10-24 03:53:00
11:18 PM,55.4,55.4,100,29.93,1.0,SSE,6.9,-,N/A,,Overcast,160,2012-10-24 04:18:00
11:51 PM,57.2,57.2,100,29.92,1.2,South,6.9,-,N/A,,Overcast,170,2012-10-24 04:51:00
11:53 PM,57.0,57.0,100,29.93,1.2,South,8.1,-,N/A,,Overcast,170,2012-10-24 04:53:00